Latest Coastal Weather Observations for Stenhouse Bay

IDS60701

Issued at 5:31 pm CDT Tuesday 24 January 2017 (issued every 10 minutes, with the page automatically refreshed every 10 minutes)

About coastal observations | Map of coastal stations | Coastal observations for SA | Marine services | Other Formats
Station Details ID: 022049 Name: STENHOUSE BAY Lat: -35.28 Lon: 136.94 Height: 42.0 m
Data from the previous 72 hours. | See also: Recent months at Stenhouse Bay
Date/Time
CDT
Temp
°C
Wind Pressure Rain since
9am
mm
Weather Cloud Vis
km
Sea
Height
m
Swell
Dir  Spd
kts
Gust
kts
hPa Trend Height
m
Period
s
Dir
24/05:00pm 21.7 SSE 11 14 1018.9 - 0.0 - - - - - - -
24/04:30pm 21.9 SSE 9 11 1019.0 - 0.0 - - - - - - -
24/04:00pm 22.6 S 6 9 1019.0 - 0.0 - - - - - - -
24/03:30pm 21.9 SW 8 11 1019.1 - 0.0 - - - - - - -
24/03:00pm 21.6 SW 9 12 1019.2 - 0.0 - - - - - - -
24/02:30pm 21.2 SW 10 13 1019.3 - 0.0 - - - - - - -
24/02:00pm 21.3 SW 7 10 1019.4 - 0.0 - - - - - - -
24/01:30pm 20.7 SSW 4 6 1019.5 - 0.0 - - - - - - -
24/01:00pm 20.3 SSW 5 7 1019.5 - 0.0 - - - - - - -
24/12:30pm 20.5 S 5 7 1019.3 - 0.0 - - - - - - -
24/12:00pm 19.9 SSE 6 8 1019.2 - 0.0 - - - - - - -
24/11:30am 19.6 S 5 8 1018.9 - 0.0 - - - - - - -
24/11:00am 19.6 S 8 10 1018.8 - 0.0 - - - - - - -
24/10:30am 19.1 SSE 8 10 1018.7 - 0.0 - - - - - - -
24/10:00am 19.0 S 7 10 1018.7 - 0.0 - - - - - - -
24/09:30am 18.7 SSE 9 12 1018.4 - 0.0 - - - - - - -
24/09:00am 18.4 S 12 16 1017.8 - 8.8 - - - - - - -
24/08:30am 16.6 S 12 15 1017.3 - 8.8 - - - - - - -
24/08:00am 16.7 S 14 18 1016.6 - 8.8 - - - - - - -
24/07:30am 17.1 S 13 18 1015.9 - 8.8 - - - - - - -
24/07:00am 16.7 S 14 19 1015.5 - 8.8 - - - - - - -
24/06:30am 16.6 S 14 19 1015.1 - 8.8 - - - - - - -
24/06:00am 16.9 S 15 19 1014.5 - 8.8 - - - - - - -
24/05:30am 16.9 S 18 23 1014.0 - 8.8 - - - - - - -
24/05:00am 17.2 S 17 22 1013.4 - 8.8 - - - - - - -
24/04:30am 17.4 SSW 18 25 1013.1 - 8.8 - - - - - - -
24/04:00am 17.6 SSW 16 23 1012.9 - 8.8 - - - - - - -
24/03:30am 17.6 SSW 18 24 1012.7 - 8.8 - - - - - - -
24/03:00am 17.6 SSW 17 24 1012.4 - 8.8 - - - - - - -
24/02:30am 17.7 SSW 16 26 1012.0 - 8.8 - - - - - - -
24/02:02am 18.0 SSW 16 26 1011.7 - 8.8 - - - - - - -
24/02:00am 18.1 SSW 17 26 1011.6 - 8.8 - - - - - - -
24/01:57am 18.1 SSW 16 26 1011.7 - 8.8 - - - - - - -
24/01:30am 18.3 SSW 12 19 1011.5 - 8.8 - - - - - - -
24/01:02am 18.4 SSW 15 25 1011.4 - 8.8 - - - - - - -
24/01:00am 18.3 SW 16 25 1011.4 - 8.8 - - - - - - -
24/12:30am 18.4 SW 15 20 1011.2 - 8.8 - - - - - - -
24/12:00am 18.4 SW 18 23 1010.8 - 8.8 - - - - - - -
 
Date/Time
CDT
Temp
°C
Wind Pressure Rain since
9am
mm
Weather Cloud Vis
km
Sea
Height
m
Swell
Dir  Spd
kts
Gust
kts
hPa Trend Height
m
Period
s
Dir
23/11:30pm 18.4 SW 17 23 1010.4 - 8.8 - - - - - - -
23/11:00pm 18.5 SW 17 24 1010.1 - 8.8 - - - - - - -
23/10:30pm 18.8 SW 18 23 1009.7 - 8.8 - - - - - - -
23/10:00pm 18.9 SW 16 24 1009.5 - 8.6 - - - - - - -
23/09:30pm 19.0 WSW 17 24 1008.8 - 8.6 - - - - - - -
23/09:00pm 19.1 WSW 15 22 1008.1 - 8.6 - - - - - - -
23/08:30pm 19.2 WSW 12 17 1007.4 - 8.6 - - - - - - -
23/08:00pm 19.2 WSW 13 18 1006.6 - 8.6 - - - - - - -
23/07:30pm 19.6 WSW 10 13 1005.7 - 8.6 - - - - - - -
23/07:00pm 19.6 WSW 10 14 1005.5 - 8.6 - - - - - - -
23/06:30pm 20.0 WSW 11 14 1004.8 - 8.6 - - - - - - -
23/06:00pm 20.9 WSW 11 16 1004.6 - 8.6 - - - - - - -
23/05:30pm 21.2 W 9 13 1004.4 - 8.6 - - - - - - -
23/05:00pm 21.7 WNW 8 13 1004.0 - 8.6 - - - - - - -
23/04:30pm 21.3 NW 7 9 1004.2 - 8.6 - - - - - - -
23/04:00pm 21.2 NW 8 10 1004.9 - 8.4 - - - - - - -
23/03:30pm 21.2 NNW 8 12 1005.0 - 8.0 - - - - - - -
23/03:00pm 21.1 NNW 6 9 1004.9 - 7.6 Rain - - - - - -
23/02:30pm 20.4 SW 3 5 1004.9 - 6.8 - - - - - - -
23/02:00pm 21.6 NNW 5 7 1005.1 - 5.4 - - - - - - -
23/01:30pm 21.3 WSW 2 3 1004.8 - 4.4 - - - - - - -
23/01:00pm 21.3 N 2 3 1004.6 - 4.2 - - - - - - -
23/12:30pm 20.4 ENE 2 3 1004.6 - 3.8 - - - - - - -
23/12:00pm 20.5 NNW 5 9 1005.7 - 1.6 Rain - - - - - -
23/11:30am 21.4 NNW 2 3 1005.5 - 0.6 - - - - - - -
23/11:00am 21.6 NNW 2 3 1005.3 - 0.4 - - - - - - -
23/10:30am 22.1 N 3 4 1005.5 - 0.0 - - - - - - -
23/10:00am 21.8 SW 5 7 1005.6 - 0.0 - - - - - - -
23/09:30am 21.0 WSW 7 10 1005.7 - 0.0 - - - - - - -
23/09:00am 21.0 WSW 11 14 1005.4 - 1.0 - - - - - - -
23/08:30am 21.9 SE 1 3 1004.9 - 1.0 - - - - - - -
23/08:00am 21.1 SSW 5 7 1004.7 - 1.0 - - - - - - -
23/07:30am 20.9 SSW 4 6 1004.6 - 1.0 - - - - - - -
23/07:00am 20.7 S 5 6 1004.5 - 1.0 - - - - - - -
23/06:30am 20.5 SSW 5 9 1004.9 - 0.8 - - - - - - -
23/06:00am 21.2 SSE 6 7 1004.3 - 0.6 - - - - - - -
23/05:30am 21.2 SE 7 9 1004.0 - 0.6 - - - - - - -
23/05:00am 21.1 E 5 8 1003.9 - 0.6 - - - - - - -
23/04:30am 21.0 E 7 9 1003.9 - 0.6 - - - - - - -
23/04:00am 21.1 E 6 8 1003.9 - 0.6 - - - - - - -
23/03:30am 21.2 E 6 8 1004.3 - 0.6 - - - - - - -
23/03:00am 21.2 E 6 10 1004.6 - 0.6 - - - - - - -
23/02:30am 21.3 E 7 11 1005.2 - 0.6 - - - - - - -
23/02:00am 21.4 E 5 7 1005.8 - 0.6 - - - - - - -
23/01:30am 21.4 ENE 5 6 1006.5 - 0.6 - - - - - - -
23/01:00am 21.4 ENE 5 7 1006.7 - 0.6 - - - - - - -
23/12:30am 21.1 E 5 7 1006.7 - 0.6 - - - - - - -
23/12:00am 21.1 E 3 5 1007.3 - 0.6 - - - - - - -
 
Date/Time
CDT
Temp
°C
Wind Pressure Rain since
9am
mm
Weather Cloud Vis
km
Sea
Height
m
Swell
Dir  Spd
kts
Gust
kts
hPa Trend Height
m
Period
s
Dir
22/11:30pm 21.0 SSE 4 5 1007.5 - 0.6 - - - - - - -
22/11:00pm 20.9 SSE 5 6 1007.2 - 0.6 - - - - - - -
22/10:30pm 20.8 S 6 7 1007.8 - 0.6 - - - - - - -
22/10:00pm 20.8 S 7 8 1007.9 - 0.6 - - - - - - -
22/09:30pm 20.3 SSE 9 11 1007.5 - 0.6 - - - - - - -
22/09:00pm 20.1 S 10 12 1007.8 - 0.6 - - - - - - -
22/08:30pm 19.9 S 12 13 1007.7 - 0.6 - - - - - - -
22/08:00pm 20.0 S 9 12 1008.6 - 0.6 - - - - - - -
22/07:30pm 19.8 S 10 13 1009.0 - 0.6 - - - - - - -
22/07:00pm 19.9 SW 10 12 1009.3 - 0.2 - - - - - - -
22/06:30pm 20.6 WSW 14 20 1009.1 - 0.0 - - - - - - -
22/06:00pm 22.6 WSW 14 19 1009.2 - 0.0 - - - - - - -
22/05:30pm 23.1 WSW 11 14 1009.3 - 0.0 - - - - - - -
22/05:00pm 22.5 SW 10 13 1009.3 - 0.0 - - - - - - -
22/04:30pm 23.0 SW 7 10 1009.6 - 0.0 - - - - - - -
22/04:00pm 23.8 S 5 6 1009.2 - 0.0 - - - - - - -
22/03:30pm 24.3 S 5 7 1009.2 - 0.0 - - - - - - -
22/03:00pm 24.2 S 5 8 1009.3 - 0.0 - - - - - - -
22/02:30pm 26.2 S 5 9 1009.1 - 0.0 - - - - - - -
22/02:26pm 27.1 N 6 12 1009.1 - 0.0 - - - - - - -
22/02:00pm 32.3 NNW 13 17 1009.2 - 0.0 - - - - - - -
22/01:30pm 32.4 N 8 14 1009.4 - 0.0 - - - - - - -
22/01:00pm 31.5 N 9 14 1009.7 - 0.0 - - - - - - -
22/12:30pm 29.7 N 12 17 1010.2 - 0.0 - - - - - - -
22/12:00pm 29.5 N 13 17 1010.4 - 0.0 - - - - - - -
22/11:30am 29.7 N 14 19 1010.6 - 0.0 - - - - - - -
22/11:00am 28.6 N 11 16 1011.0 - 0.0 - - - - - - -
22/10:30am 28.1 N 10 15 1011.0 - 0.0 - - - - - - -
22/10:00am 27.3 N 11 16 1011.4 - 0.0 - - - - - - -
22/09:30am 23.3 ENE 4 6 1011.9 - 0.0 - - - - - - -
22/09:00am 21.5 ENE 4 5 1011.9 - 0.0 - - - - - - -
22/08:30am 20.9 NE 7 10 1011.9 - 0.0 - - - - - - -
22/08:00am 20.0 NE 6 9 1011.7 - 0.0 - - - - - - -
22/07:30am 19.9 NNE 5 5 1011.7 - 0.0 - - - - - - -
22/07:00am 19.5 NE 7 9 1011.5 - 0.0 - - - - - - -
22/06:30am 19.5 ENE 9 12 1011.3 - 0.0 - - - - - - -
22/06:00am 19.7 ENE 9 14 1011.1 - 0.0 - - - - - - -
22/05:30am 19.6 ENE 11 14 1011.1 - 0.0 - - - - - - -
22/05:00am 19.4 ENE 14 19 1010.5 - 0.0 - - - - - - -
22/04:30am 19.2 ENE 11 16 1010.7 - 0.0 - - - - - - -
22/04:00am 18.9 E 13 16 1011.1 - 0.0 - - - - - - -
22/03:30am 19.0 E 11 16 1011.3 - 0.0 - - - - - - -
22/03:00am 18.8 E 13 17 1011.3 - 0.0 - - - - - - -
22/02:30am 18.8 E 14 17 1011.7 - 0.0 - - - - - - -
22/02:00am 18.8 E 15 19 1012.0 - 0.0 - - - - - - -
22/01:30am 18.7 E 14 19 1012.5 - 0.0 - - - - - - -
22/01:00am 18.6 ESE 15 19 1012.7 - 0.0 - - - - - - -
22/12:30am 18.4 ESE 16 19 1012.8 - 0.0 - - - - - - -
22/12:00am 18.4 ESE 16 20 1012.9 - 0.0 - - - - - - -
 
Date/Time
CDT
Temp
°C
Wind Pressure Rain since
9am
mm
Weather Cloud Vis
km
Sea
Height
m
Swell
Dir  Spd
kts
Gust
kts
hPa Trend Height
m
Period
s
Dir
21/11:30pm 18.2 ESE 15 20 1013.2 - 0.0 - - - - - - -
21/11:00pm 18.4 ESE 16 19 1013.6 - 0.0 - - - - - - -
21/10:30pm 18.3 ESE 16 20 1013.7 - 0.0 - - - - - - -
21/10:00pm 18.4 ESE 15 18 1013.8 - 0.0 - - - - - - -
21/09:30pm 18.8 ESE 17 21 1013.6 - 0.0 - - - - - - -
21/09:00pm 19.3 ESE 18 22 1013.2 - 0.0 - - - - - - -
21/08:30pm 19.9 ESE 17 21 1013.1 - 0.0 - - - - - - -
21/08:00pm 20.3 ESE 15 18 1012.8 - 0.0 - - - - - - -
21/07:30pm 20.4 SE 11 14 1012.9 - 0.0 - - - - - - -
21/07:00pm 20.7 SE 9 11 1012.8 - 0.0 - - - - - - -
21/06:30pm 20.9 SSE 10 11 1012.8 - 0.0 - - - - - - -
21/06:00pm 21.6 S 10 13 1013.0 - 0.0 - - - - - - -

Other Formats:

Comma delimited format used in spreadsheet applications
http://www.bom.gov.au/fwo/IDS60701/IDS60701.95806.axf

JavaScript Object Notation format (JSON) in row-major order
http://www.bom.gov.au/fwo/IDS60701/IDS60701.95806.json